sensor_id;sensor_type;location;lat;lon;timestamp;P1;durP1;ratioP1;P2;durP2;ratioP2
14975;SDS011;7584;60.468;25.126;2022-08-19T00:02:21;19.92;;;15.85;;
14975;SDS011;7584;60.468;25.126;2022-08-19T00:04:46;16.30;;;14.70;;
14975;SDS011;7584;60.468;25.126;2022-08-19T00:07:13;18.83;;;15.15;;
14975;SDS011;7584;60.468;25.126;2022-08-19T00:09:39;21.60;;;15.20;;
14975;SDS011;7584;60.468;25.126;2022-08-19T00:12:04;18.30;;;15.18;;
14975;SDS011;7584;60.468;25.126;2022-08-19T00:14:29;21.52;;;15.77;;
14975;SDS011;7584;60.468;25.126;2022-08-19T00:16:56;17.20;;;15.38;;
14975;SDS011;7584;60.468;25.126;2022-08-19T00:19:22;18.27;;;15.73;;
14975;SDS011;7584;60.468;25.126;2022-08-19T00:21:48;18.10;;;15.27;;
14975;SDS011;7584;60.468;25.126;2022-08-19T00:24:14;18.25;;;16.33;;
14975;SDS011;7584;60.468;25.126;2022-08-19T00:26:40;17.90;;;15.50;;
14975;SDS011;7584;60.468;25.126;2022-08-19T00:29:07;17.05;;;15.25;;
14975;SDS011;7584;60.468;25.126;2022-08-19T00:31:33;17.45;;;15.60;;
14975;SDS011;7584;60.468;25.126;2022-08-19T00:33:58;17.45;;;15.68;;
14975;SDS011;7584;60.468;25.126;2022-08-19T00:36:24;21.70;;;15.93;;
14975;SDS011;7584;60.468;25.126;2022-08-19T00:38:49;17.17;;;15.43;;
14975;SDS011;7584;60.468;25.126;2022-08-19T00:41:17;20.25;;;16.15;;
14975;SDS011;7584;60.468;25.126;2022-08-19T00:43:56;18.48;;;16.00;;
14975;SDS011;7584;60.468;25.126;2022-08-19T00:46:21;21.27;;;16.30;;
14975;SDS011;7584;60.468;25.126;2022-08-19T00:48:46;17.88;;;15.98;;
14975;SDS011;7584;60.468;25.126;2022-08-19T00:51:12;18.02;;;16.42;;
14975;SDS011;7584;60.468;25.126;2022-08-19T00:53:37;20.73;;;16.88;;
14975;SDS011;7584;60.468;25.126;2022-08-19T00:56:02;17.75;;;16.00;;
14975;SDS011;7584;60.468;25.126;2022-08-19T00:58:32;18.58;;;16.40;;
14975;SDS011;7584;60.468;25.126;2022-08-19T01:00:58;20.08;;;17.48;;
14975;SDS011;7584;60.468;25.126;2022-08-19T01:03:24;22.25;;;16.80;;
14975;SDS011;7584;60.468;25.126;2022-08-19T01:05:49;18.08;;;15.88;;
14975;SDS011;7584;60.468;25.126;2022-08-19T01:08:16;19.08;;;16.98;;
14975;SDS011;7584;60.468;25.126;2022-08-19T01:10:45;18.38;;;16.02;;
14975;SDS011;7584;60.468;25.126;2022-08-19T01:13:11;19.58;;;16.30;;
14975;SDS011;7584;60.468;25.126;2022-08-19T01:15:42;19.02;;;16.77;;
14975;SDS011;7584;60.468;25.126;2022-08-19T01:18:10;20.05;;;15.65;;
14975;SDS011;7584;60.468;25.126;2022-08-19T01:20:35;20.10;;;16.95;;
14975;SDS011;7584;60.468;25.126;2022-08-19T01:23:01;20.40;;;16.75;;
14975;SDS011;7584;60.468;25.126;2022-08-19T01:25:28;23.48;;;16.52;;
14975;SDS011;7584;60.468;25.126;2022-08-19T01:27:54;18.48;;;16.67;;
14975;SDS011;7584;60.468;25.126;2022-08-19T01:30:22;17.73;;;16.00;;
14975;SDS011;7584;60.468;25.126;2022-08-19T01:32:48;19.58;;;17.15;;
14975;SDS011;7584;60.468;25.126;2022-08-19T01:35:13;19.33;;;17.40;;
14975;SDS011;7584;60.468;25.126;2022-08-19T01:37:49;20.65;;;16.13;;
14975;SDS011;7584;60.468;25.126;2022-08-19T01:40:16;20.45;;;17.05;;
14975;SDS011;7584;60.468;25.126;2022-08-19T01:42:42;20.65;;;16.98;;
14975;SDS011;7584;60.468;25.126;2022-08-19T01:45:07;18.33;;;16.45;;
14975;SDS011;7584;60.468;25.126;2022-08-19T01:47:35;18.33;;;15.60;;
14975;SDS011;7584;60.468;25.126;2022-08-19T01:50:01;18.77;;;16.00;;
14975;SDS011;7584;60.468;25.126;2022-08-19T01:52:26;19.65;;;17.70;;
14975;SDS011;7584;60.468;25.126;2022-08-19T01:54:52;21.77;;;16.48;;
14975;SDS011;7584;60.468;25.126;2022-08-19T01:57:17;19.38;;;17.02;;
14975;SDS011;7584;60.468;25.126;2022-08-19T01:59:43;20.52;;;16.77;;
14975;SDS011;7584;60.468;25.126;2022-08-19T02:02:09;23.50;;;17.17;;
14975;SDS011;7584;60.468;25.126;2022-08-19T02:04:35;19.13;;;16.30;;
14975;SDS011;7584;60.468;25.126;2022-08-19T02:07:02;19.20;;;17.40;;
14975;SDS011;7584;60.468;25.126;2022-08-19T02:09:28;18.85;;;17.00;;
14975;SDS011;7584;60.468;25.126;2022-08-19T02:11:53;19.77;;;16.45;;
14975;SDS011;7584;60.468;25.126;2022-08-19T02:14:18;19.15;;;16.40;;
14975;SDS011;7584;60.468;25.126;2022-08-19T02:16:43;24.08;;;17.35;;
14975;SDS011;7584;60.468;25.126;2022-08-19T02:19:09;18.90;;;17.02;;
14975;SDS011;7584;60.468;25.126;2022-08-19T02:21:35;20.13;;;17.83;;
14975;SDS011;7584;60.468;25.126;2022-08-19T02:24:01;21.77;;;17.27;;
14975;SDS011;7584;60.468;25.126;2022-08-19T02:26:26;18.17;;;16.35;;
14975;SDS011;7584;60.468;25.126;2022-08-19T02:28:51;20.02;;;16.48;;
14975;SDS011;7584;60.468;25.126;2022-08-19T02:31:19;20.60;;;17.30;;
14975;SDS011;7584;60.468;25.126;2022-08-19T02:33:45;18.98;;;17.02;;
14975;SDS011;7584;60.468;25.126;2022-08-19T02:36:11;22.13;;;18.65;;
14975;SDS011;7584;60.468;25.126;2022-08-19T02:38:37;20.35;;;18.25;;
14975;SDS011;7584;60.468;25.126;2022-08-19T02:41:03;21.48;;;17.08;;
14975;SDS011;7584;60.468;25.126;2022-08-19T02:43:30;20.48;;;18.42;;
14975;SDS011;7584;60.468;25.126;2022-08-19T02:45:56;19.92;;;17.30;;
14975;SDS011;7584;60.468;25.126;2022-08-19T02:48:22;20.97;;;17.27;;
14975;SDS011;7584;60.468;25.126;2022-08-19T02:50:48;19.50;;;17.27;;
14975;SDS011;7584;60.468;25.126;2022-08-19T02:53:17;23.97;;;18.30;;
14975;SDS011;7584;60.468;25.126;2022-08-19T02:55:43;19.88;;;16.80;;
14975;SDS011;7584;60.468;25.126;2022-08-19T02:58:09;21.13;;;17.83;;
14975;SDS011;7584;60.468;25.126;2022-08-19T03:00:35;20.08;;;17.75;;
14975;SDS011;7584;60.468;25.126;2022-08-19T03:03:00;23.97;;;18.40;;
14975;SDS011;7584;60.468;25.126;2022-08-19T03:05:25;20.75;;;17.52;;
14975;SDS011;7584;60.468;25.126;2022-08-19T03:07:51;19.35;;;17.27;;
14975;SDS011;7584;60.468;25.126;2022-08-19T03:10:17;22.70;;;17.17;;
14975;SDS011;7584;60.468;25.126;2022-08-19T03:12:42;21.75;;;17.27;;
14975;SDS011;7584;60.468;25.126;2022-08-19T03:15:08;22.23;;;17.27;;
14975;SDS011;7584;60.468;25.126;2022-08-19T03:17:34;19.58;;;17.52;;
14975;SDS011;7584;60.468;25.126;2022-08-19T03:19:59;19.73;;;17.65;;
14975;SDS011;7584;60.468;25.126;2022-08-19T03:22:25;19.55;;;17.27;;
14975;SDS011;7584;60.468;25.126;2022-08-19T03:24:50;19.40;;;17.45;;
14975;SDS011;7584;60.468;25.126;2022-08-19T03:27:15;19.20;;;17.25;;
14975;SDS011;7584;60.468;25.126;2022-08-19T03:29:42;19.40;;;17.50;;
14975;SDS011;7584;60.468;25.126;2022-08-19T03:32:08;24.27;;;18.75;;
14975;SDS011;7584;60.468;25.126;2022-08-19T03:34:34;23.92;;;17.40;;
14975;SDS011;7584;60.468;25.126;2022-08-19T03:37:04;19.30;;;17.23;;
14975;SDS011;7584;60.468;25.126;2022-08-19T03:39:29;21.65;;;17.10;;
14975;SDS011;7584;60.468;25.126;2022-08-19T03:41:55;19.48;;;17.45;;
14975;SDS011;7584;60.468;25.126;2022-08-19T03:44:27;18.55;;;16.65;;
14975;SDS011;7584;60.468;25.126;2022-08-19T03:46:54;21.77;;;17.25;;
14975;SDS011;7584;60.468;25.126;2022-08-19T03:49:20;25.42;;;16.65;;
14975;SDS011;7584;60.468;25.126;2022-08-19T03:51:47;18.48;;;16.50;;
14975;SDS011;7584;60.468;25.126;2022-08-19T03:54:13;20.58;;;15.65;;
14975;SDS011;7584;60.468;25.126;2022-08-19T03:56:40;19.00;;;15.65;;
14975;SDS011;7584;60.468;25.126;2022-08-19T03:59:06;20.67;;;16.10;;
14975;SDS011;7584;60.468;25.126;2022-08-19T04:01:32;18.30;;;15.00;;
14975;SDS011;7584;60.468;25.126;2022-08-19T04:03:58;20.70;;;14.88;;
14975;SDS011;7584;60.468;25.126;2022-08-19T04:06:27;22.45;;;14.38;;
14975;SDS011;7584;60.468;25.126;2022-08-19T04:08:54;17.15;;;13.60;;
14975;SDS011;7584;60.468;25.126;2022-08-19T04:11:21;18.00;;;13.35;;
14975;SDS011;7584;60.468;25.126;2022-08-19T04:13:47;20.13;;;14.15;;
14975;SDS011;7584;60.468;25.126;2022-08-19T04:16:12;18.23;;;13.63;;
14975;SDS011;7584;60.468;25.126;2022-08-19T04:18:38;16.70;;;13.50;;
14975;SDS011;7584;60.468;25.126;2022-08-19T04:21:04;14.50;;;12.40;;
14975;SDS011;7584;60.468;25.126;2022-08-19T04:23:30;14.63;;;12.88;;
14975;SDS011;7584;60.468;25.126;2022-08-19T04:25:55;14.88;;;13.32;;
14975;SDS011;7584;60.468;25.126;2022-08-19T04:28:21;16.73;;;13.38;;
14975;SDS011;7584;60.468;25.126;2022-08-19T04:30:47;15.20;;;12.07;;
14975;SDS011;7584;60.468;25.126;2022-08-19T04:33:14;17.45;;;11.57;;
14975;SDS011;7584;60.468;25.126;2022-08-19T04:35:42;17.55;;;12.75;;
14975;SDS011;7584;60.468;25.126;2022-08-19T04:38:08;17.13;;;11.98;;
14975;SDS011;7584;60.468;25.126;2022-08-19T04:40:34;14.88;;;11.48;;
14975;SDS011;7584;60.468;25.126;2022-08-19T04:43:23;15.95;;;12.55;;
14975;SDS011;7584;60.468;25.126;2022-08-19T04:45:48;14.60;;;11.30;;
14975;SDS011;7584;60.468;25.126;2022-08-19T04:48:14;15.43;;;11.63;;
14975;SDS011;7584;60.468;25.126;2022-08-19T04:50:40;15.38;;;10.73;;
14975;SDS011;7584;60.468;25.126;2022-08-19T04:53:06;14.23;;;10.75;;
14975;SDS011;7584;60.468;25.126;2022-08-19T04:55:31;17.80;;;11.00;;
14975;SDS011;7584;60.468;25.126;2022-08-19T04:57:56;15.85;;;10.85;;
14975;SDS011;7584;60.468;25.126;2022-08-19T05:00:22;14.52;;;10.50;;
14975;SDS011;7584;60.468;25.126;2022-08-19T05:02:47;16.90;;;10.05;;
14975;SDS011;7584;60.468;25.126;2022-08-19T05:05:14;13.23;;;9.52;;
14975;SDS011;7584;60.468;25.126;2022-08-19T05:07:40;14.32;;;9.43;;
14975;SDS011;7584;60.468;25.126;2022-08-19T05:10:06;16.15;;;9.48;;
14975;SDS011;7584;60.468;25.126;2022-08-19T05:12:31;15.15;;;9.55;;
14975;SDS011;7584;60.468;25.126;2022-08-19T05:14:57;12.75;;;9.07;;
14975;SDS011;7584;60.468;25.126;2022-08-19T05:17:22;15.25;;;9.05;;
14975;SDS011;7584;60.468;25.126;2022-08-19T05:19:48;14.30;;;9.23;;
14975;SDS011;7584;60.468;25.126;2022-08-19T05:22:31;11.00;;;8.93;;
14975;SDS011;7584;60.468;25.126;2022-08-19T05:25:00;12.68;;;8.55;;
14975;SDS011;7584;60.468;25.126;2022-08-19T05:27:26;11.20;;;8.60;;
14975;SDS011;7584;60.468;25.126;2022-08-19T05:29:51;13.02;;;8.20;;
14975;SDS011;7584;60.468;25.126;2022-08-19T05:32:16;13.27;;;8.57;;
14975;SDS011;7584;60.468;25.126;2022-08-19T05:34:41;8.30;;;7.50;;
14975;SDS011;7584;60.468;25.126;2022-08-19T05:37:07;10.18;;;7.78;;
14975;SDS011;7584;60.468;25.126;2022-08-19T05:39:34;13.35;;;8.07;;
14975;SDS011;7584;60.468;25.126;2022-08-19T05:42:09;10.18;;;7.78;;
14975;SDS011;7584;60.468;25.126;2022-08-19T05:44:36;14.27;;;7.47;;
14975;SDS011;7584;60.468;25.126;2022-08-19T05:47:02;19.40;;;7.63;;
14975;SDS011;7584;60.468;25.126;2022-08-19T05:49:29;10.77;;;8.10;;
14975;SDS011;7584;60.468;25.126;2022-08-19T05:51:55;10.43;;;7.30;;
14975;SDS011;7584;60.468;25.126;2022-08-19T05:54:21;12.40;;;7.97;;
14975;SDS011;7584;60.468;25.126;2022-08-19T05:56:48;12.02;;;7.97;;
14975;SDS011;7584;60.468;25.126;2022-08-19T05:59:14;12.90;;;8.25;;
14975;SDS011;7584;60.468;25.126;2022-08-19T06:01:40;11.40;;;7.63;;
14975;SDS011;7584;60.468;25.126;2022-08-19T06:04:06;11.82;;;8.52;;
14975;SDS011;7584;60.468;25.126;2022-08-19T06:06:32;8.45;;;7.65;;
14975;SDS011;7584;60.468;25.126;2022-08-19T06:08:59;9.82;;;7.95;;
14975;SDS011;7584;60.468;25.126;2022-08-19T06:11:35;11.15;;;8.80;;
14975;SDS011;7584;60.468;25.126;2022-08-19T06:14:05;10.15;;;8.65;;
14975;SDS011;7584;60.468;25.126;2022-08-19T06:16:33;10.68;;;8.70;;
14975;SDS011;7584;60.468;25.126;2022-08-19T06:19:03;11.55;;;7.97;;
14975;SDS011;7584;60.468;25.126;2022-08-19T06:21:29;11.90;;;7.53;;
14975;SDS011;7584;60.468;25.126;2022-08-19T06:23:55;9.75;;;7.53;;
14975;SDS011;7584;60.468;25.126;2022-08-19T06:26:21;12.48;;;7.30;;
14975;SDS011;7584;60.468;25.126;2022-08-19T06:28:47;15.00;;;7.55;;
14975;SDS011;7584;60.468;25.126;2022-08-19T06:31:20;11.23;;;7.85;;
14975;SDS011;7584;60.468;25.126;2022-08-19T06:33:46;17.00;;;7.40;;
14975;SDS011;7584;60.468;25.126;2022-08-19T06:36:19;10.80;;;6.82;;
14975;SDS011;7584;60.468;25.126;2022-08-19T06:38:44;11.52;;;6.88;;
14975;SDS011;7584;60.468;25.126;2022-08-19T06:41:10;8.23;;;6.80;;
14975;SDS011;7584;60.468;25.126;2022-08-19T06:43:36;10.70;;;6.97;;
14975;SDS011;7584;60.468;25.126;2022-08-19T06:46:01;10.07;;;6.50;;
14975;SDS011;7584;60.468;25.126;2022-08-19T06:48:28;11.73;;;6.55;;
14975;SDS011;7584;60.468;25.126;2022-08-19T06:50:53;10.50;;;6.60;;
14975;SDS011;7584;60.468;25.126;2022-08-19T06:53:19;10.80;;;7.25;;
14975;SDS011;7584;60.468;25.126;2022-08-19T06:55:45;10.93;;;6.40;;
14975;SDS011;7584;60.468;25.126;2022-08-19T06:58:10;10.75;;;6.63;;
14975;SDS011;7584;60.468;25.126;2022-08-19T07:00:35;10.07;;;6.10;;
14975;SDS011;7584;60.468;25.126;2022-08-19T07:03:01;11.43;;;6.43;;
14975;SDS011;7584;60.468;25.126;2022-08-19T07:05:27;7.80;;;6.38;;
14975;SDS011;7584;60.468;25.126;2022-08-19T07:07:52;9.43;;;6.10;;
14975;SDS011;7584;60.468;25.126;2022-08-19T07:10:18;12.18;;;5.97;;
14975;SDS011;7584;60.468;25.126;2022-08-19T07:12:44;6.65;;;6.05;;
14975;SDS011;7584;60.468;25.126;2022-08-19T07:15:09;10.40;;;6.13;;
14975;SDS011;7584;60.468;25.126;2022-08-19T07:17:35;6.55;;;5.95;;
14975;SDS011;7584;60.468;25.126;2022-08-19T07:20:04;10.77;;;6.28;;
14975;SDS011;7584;60.468;25.126;2022-08-19T07:22:30;14.63;;;6.60;;
14975;SDS011;7584;60.468;25.126;2022-08-19T07:24:56;10.93;;;6.30;;
14975;SDS011;7584;60.468;25.126;2022-08-19T07:27:21;12.63;;;6.22;;
14975;SDS011;7584;60.468;25.126;2022-08-19T07:29:46;8.43;;;5.97;;
14975;SDS011;7584;60.468;25.126;2022-08-19T07:32:11;10.32;;;6.32;;
14975;SDS011;7584;60.468;25.126;2022-08-19T07:34:37;8.50;;;6.07;;
14975;SDS011;7584;60.468;25.126;2022-08-19T07:37:06;9.35;;;5.78;;
14975;SDS011;7584;60.468;25.126;2022-08-19T07:39:34;7.07;;;5.60;;
14975;SDS011;7584;60.468;25.126;2022-08-19T07:42:00;9.05;;;5.55;;
14975;SDS011;7584;60.468;25.126;2022-08-19T07:44:26;9.48;;;5.75;;
14975;SDS011;7584;60.468;25.126;2022-08-19T07:46:53;8.65;;;5.72;;
14975;SDS011;7584;60.468;25.126;2022-08-19T07:49:19;8.23;;;5.70;;
14975;SDS011;7584;60.468;25.126;2022-08-19T07:51:46;6.63;;;6.00;;
14975;SDS011;7584;60.468;25.126;2022-08-19T07:54:11;12.57;;;5.38;;
14975;SDS011;7584;60.468;25.126;2022-08-19T07:56:37;8.15;;;5.60;;
14975;SDS011;7584;60.468;25.126;2022-08-19T07:59:02;8.88;;;5.10;;
14975;SDS011;7584;60.468;25.126;2022-08-19T08:01:27;6.22;;;5.15;;
14975;SDS011;7584;60.468;25.126;2022-08-19T08:03:54;6.10;;;4.57;;
14975;SDS011;7584;60.468;25.126;2022-08-19T08:06:38;9.88;;;5.53;;
14975;SDS011;7584;60.468;25.126;2022-08-19T08:09:37;9.88;;;5.20;;
14975;SDS011;7584;60.468;25.126;2022-08-19T08:12:04;8.80;;;4.90;;
14975;SDS011;7584;60.468;25.126;2022-08-19T08:14:35;9.13;;;5.63;;
14975;SDS011;7584;60.468;25.126;2022-08-19T08:17:02;6.82;;;5.10;;
14975;SDS011;7584;60.468;25.126;2022-08-19T08:19:28;7.78;;;5.00;;
14975;SDS011;7584;60.468;25.126;2022-08-19T08:21:54;6.78;;;4.32;;
14975;SDS011;7584;60.468;25.126;2022-08-19T08:24:20;7.93;;;5.78;;
14975;SDS011;7584;60.468;25.126;2022-08-19T08:26:45;5.57;;;4.63;;
14975;SDS011;7584;60.468;25.126;2022-08-19T08:29:11;6.90;;;5.15;;
14975;SDS011;7584;60.468;25.126;2022-08-19T08:31:38;6.78;;;4.97;;
14975;SDS011;7584;60.468;25.126;2022-08-19T08:34:03;8.38;;;5.25;;
14975;SDS011;7584;60.468;25.126;2022-08-19T08:36:29;7.03;;;5.18;;
14975;SDS011;7584;60.468;25.126;2022-08-19T08:38:54;6.72;;;4.70;;
14975;SDS011;7584;60.468;25.126;2022-08-19T08:43:52;10.98;;;5.13;;
14975;SDS011;7584;60.468;25.126;2022-08-19T08:46:23;8.95;;;5.00;;
14975;SDS011;7584;60.468;25.126;2022-08-19T08:51:20;6.38;;;4.50;;
14975;SDS011;7584;60.468;25.126;2022-08-19T08:53:47;9.43;;;5.20;;
14975;SDS011;7584;60.468;25.126;2022-08-19T08:56:14;7.63;;;5.22;;
14975;SDS011;7584;60.468;25.126;2022-08-19T08:59:02;7.05;;;4.93;;
14975;SDS011;7584;60.468;25.126;2022-08-19T09:01:25;10.82;;;4.90;;
14975;SDS011;7584;60.468;25.126;2022-08-19T09:03:51;7.07;;;4.43;;
14975;SDS011;7584;60.468;25.126;2022-08-19T09:11:32;7.70;;;4.72;;
14975;SDS011;7584;60.468;25.126;2022-08-19T09:16:35;5.78;;;4.35;;
14975;SDS011;7584;60.468;25.126;2022-08-19T09:19:02;6.30;;;4.20;;
14975;SDS011;7584;60.468;25.126;2022-08-19T09:21:28;5.20;;;4.40;;
14975;SDS011;7584;60.468;25.126;2022-08-19T09:23:53;8.45;;;4.53;;
14975;SDS011;7584;60.468;25.126;2022-08-19T09:26:20;5.80;;;4.18;;
14975;SDS011;7584;60.468;25.126;2022-08-19T09:28:46;6.90;;;5.10;;
14975;SDS011;7584;60.468;25.126;2022-08-19T09:31:13;6.78;;;4.53;;
14975;SDS011;7584;60.468;25.126;2022-08-19T09:33:38;9.00;;;4.60;;
14975;SDS011;7584;60.468;25.126;2022-08-19T09:36:08;9.07;;;4.45;;
14975;SDS011;7584;60.468;25.126;2022-08-19T09:38:34;10.38;;;4.45;;
14975;SDS011;7584;60.468;25.126;2022-08-19T09:41:03;11.07;;;4.90;;
14975;SDS011;7584;60.468;25.126;2022-08-19T09:43:29;11.30;;;4.72;;
14975;SDS011;7584;60.468;25.126;2022-08-19T09:45:56;10.40;;;4.95;;
14975;SDS011;7584;60.468;25.126;2022-08-19T09:48:21;6.82;;;4.53;;
14975;SDS011;7584;60.468;25.126;2022-08-19T09:50:46;7.38;;;4.30;;
14975;SDS011;7584;60.468;25.126;2022-08-19T09:53:11;5.88;;;4.60;;
14975;SDS011;7584;60.468;25.126;2022-08-19T09:55:41;5.90;;;4.10;;
14975;SDS011;7584;60.468;25.126;2022-08-19T09:58:06;6.47;;;4.47;;
14975;SDS011;7584;60.468;25.126;2022-08-19T10:00:32;7.45;;;4.40;;
14975;SDS011;7584;60.468;25.126;2022-08-19T10:02:57;9.80;;;4.32;;
14975;SDS011;7584;60.468;25.126;2022-08-19T10:05:22;12.50;;;4.28;;
14975;SDS011;7584;60.468;25.126;2022-08-19T10:08:06;6.07;;;4.15;;
14975;SDS011;7584;60.468;25.126;2022-08-19T10:10:34;8.30;;;4.55;;
14975;SDS011;7584;60.468;25.126;2022-08-19T10:13:00;6.85;;;4.38;;
14975;SDS011;7584;60.468;25.126;2022-08-19T10:15:25;7.68;;;4.53;;
14975;SDS011;7584;60.468;25.126;2022-08-19T10:17:50;7.10;;;4.45;;
14975;SDS011;7584;60.468;25.126;2022-08-19T10:20:16;11.77;;;5.30;;
14975;SDS011;7584;60.468;25.126;2022-08-19T10:22:41;10.45;;;5.22;;
14975;SDS011;7584;60.468;25.126;2022-08-19T10:25:08;9.95;;;4.65;;
14975;SDS011;7584;60.468;25.126;2022-08-19T10:27:33;7.63;;;5.13;;
14975;SDS011;7584;60.468;25.126;2022-08-19T10:29:58;8.27;;;5.03;;
14975;SDS011;7584;60.468;25.126;2022-08-19T10:32:24;5.53;;;4.82;;
14975;SDS011;7584;60.468;25.126;2022-08-19T10:34:50;7.55;;;4.90;;
14975;SDS011;7584;60.468;25.126;2022-08-19T10:37:17;7.63;;;4.60;;
14975;SDS011;7584;60.468;25.126;2022-08-19T10:39:42;14.85;;;4.90;;
14975;SDS011;7584;60.468;25.126;2022-08-19T10:42:11;8.90;;;5.00;;
14975;SDS011;7584;60.468;25.126;2022-08-19T10:44:37;5.78;;;4.40;;
14975;SDS011;7584;60.468;25.126;2022-08-19T10:47:03;7.55;;;4.57;;
14975;SDS011;7584;60.468;25.126;2022-08-19T10:49:29;8.35;;;4.80;;
14975;SDS011;7584;60.468;25.126;2022-08-19T10:51:55;6.50;;;4.57;;
14975;SDS011;7584;60.468;25.126;2022-08-19T10:54:40;6.95;;;4.78;;
14975;SDS011;7584;60.468;25.126;2022-08-19T10:57:24;10.60;;;4.82;;
14975;SDS011;7584;60.468;25.126;2022-08-19T10:59:54;7.28;;;5.07;;
14975;SDS011;7584;60.468;25.126;2022-08-19T11:02:19;6.03;;;4.95;;
14975;SDS011;7584;60.468;25.126;2022-08-19T11:04:44;7.38;;;4.70;;
14975;SDS011;7584;60.468;25.126;2022-08-19T11:07:10;5.78;;;4.70;;
14975;SDS011;7584;60.468;25.126;2022-08-19T11:09:38;5.32;;;4.70;;
14975;SDS011;7584;60.468;25.126;2022-08-19T11:12:04;6.65;;;4.82;;
14975;SDS011;7584;60.468;25.126;2022-08-19T11:14:29;7.95;;;4.65;;
14975;SDS011;7584;60.468;25.126;2022-08-19T11:16:58;7.50;;;5.20;;
14975;SDS011;7584;60.468;25.126;2022-08-19T11:19:23;11.93;;;5.50;;
14975;SDS011;7584;60.468;25.126;2022-08-19T11:21:49;9.60;;;4.90;;
14975;SDS011;7584;60.468;25.126;2022-08-19T11:24:20;7.50;;;5.05;;
14975;SDS011;7584;60.468;25.126;2022-08-19T11:26:46;6.05;;;4.65;;
14975;SDS011;7584;60.468;25.126;2022-08-19T11:29:13;6.25;;;4.72;;
14975;SDS011;7584;60.468;25.126;2022-08-19T11:31:39;9.98;;;4.85;;
14975;SDS011;7584;60.468;25.126;2022-08-19T11:34:06;9.27;;;5.07;;
14975;SDS011;7584;60.468;25.126;2022-08-19T11:36:32;11.18;;;5.15;;
14975;SDS011;7584;60.468;25.126;2022-08-19T11:38:58;7.85;;;4.90;;
14975;SDS011;7584;60.468;25.126;2022-08-19T11:41:24;9.48;;;5.03;;
14975;SDS011;7584;60.468;25.126;2022-08-19T11:43:50;7.30;;;4.57;;
14975;SDS011;7584;60.468;25.126;2022-08-19T11:46:17;7.95;;;4.82;;
14975;SDS011;7584;60.468;25.126;2022-08-19T11:48:43;8.05;;;4.80;;
14975;SDS011;7584;60.468;25.126;2022-08-19T11:51:10;9.30;;;4.28;;
14975;SDS011;7584;60.468;25.126;2022-08-19T11:53:36;10.50;;;5.07;;
14975;SDS011;7584;60.468;25.126;2022-08-19T11:56:02;6.68;;;4.68;;
14975;SDS011;7584;60.468;25.126;2022-08-19T11:58:27;9.45;;;5.05;;
14975;SDS011;7584;60.468;25.126;2022-08-19T12:00:54;5.38;;;4.72;;
14975;SDS011;7584;60.468;25.126;2022-08-19T12:03:19;8.18;;;4.47;;
14975;SDS011;7584;60.468;25.126;2022-08-19T12:05:45;6.75;;;4.57;;
14975;SDS011;7584;60.468;25.126;2022-08-19T12:08:10;6.00;;;4.45;;
14975;SDS011;7584;60.468;25.126;2022-08-19T12:10:37;9.35;;;4.43;;
14975;SDS011;7584;60.468;25.126;2022-08-19T12:13:03;7.65;;;4.70;;
14975;SDS011;7584;60.468;25.126;2022-08-19T12:15:28;9.25;;;5.10;;
14975;SDS011;7584;60.468;25.126;2022-08-19T12:17:54;8.75;;;4.57;;
14975;SDS011;7584;60.468;25.126;2022-08-19T12:20:22;12.63;;;4.70;;
14975;SDS011;7584;60.468;25.126;2022-08-19T12:22:47;5.65;;;4.60;;
14975;SDS011;7584;60.468;25.126;2022-08-19T12:25:13;6.07;;;4.82;;
14975;SDS011;7584;60.468;25.126;2022-08-19T12:27:39;11.63;;;4.40;;
14975;SDS011;7584;60.468;25.126;2022-08-19T12:30:05;9.63;;;4.68;;
14975;SDS011;7584;60.468;25.126;2022-08-19T12:32:31;7.60;;;4.20;;
14975;SDS011;7584;60.468;25.126;2022-08-19T12:34:57;12.43;;;4.72;;
14975;SDS011;7584;60.468;25.126;2022-08-19T12:37:22;7.05;;;4.63;;
14975;SDS011;7584;60.468;25.126;2022-08-19T12:39:47;8.38;;;4.30;;
14975;SDS011;7584;60.468;25.126;2022-08-19T12:42:13;7.32;;;4.35;;
14975;SDS011;7584;60.468;25.126;2022-08-19T12:44:39;7.38;;;4.57;;
14975;SDS011;7584;60.468;25.126;2022-08-19T12:47:05;7.18;;;4.70;;
14975;SDS011;7584;60.468;25.126;2022-08-19T12:49:32;8.13;;;4.70;;
14975;SDS011;7584;60.468;25.126;2022-08-19T12:51:59;8.13;;;4.63;;
14975;SDS011;7584;60.468;25.126;2022-08-19T12:54:25;5.55;;;4.95;;
14975;SDS011;7584;60.468;25.126;2022-08-19T12:56:51;6.88;;;4.32;;
14975;SDS011;7584;60.468;25.126;2022-08-19T12:59:16;6.78;;;4.50;;
14975;SDS011;7584;60.468;25.126;2022-08-19T13:01:43;7.00;;;4.80;;
14975;SDS011;7584;60.468;25.126;2022-08-19T13:04:08;10.82;;;4.40;;
14975;SDS011;7584;60.468;25.126;2022-08-19T13:06:34;8.32;;;4.78;;
14975;SDS011;7584;60.468;25.126;2022-08-19T13:08:59;9.68;;;4.90;;
14975;SDS011;7584;60.468;25.126;2022-08-19T13:11:24;7.32;;;4.82;;
14975;SDS011;7584;60.468;25.126;2022-08-19T13:13:50;10.43;;;4.70;;
14975;SDS011;7584;60.468;25.126;2022-08-19T13:16:16;9.63;;;5.13;;
14975;SDS011;7584;60.468;25.126;2022-08-19T13:18:42;5.40;;;4.63;;
14975;SDS011;7584;60.468;25.126;2022-08-19T13:21:09;9.88;;;4.82;;
14975;SDS011;7584;60.468;25.126;2022-08-19T13:23:35;6.68;;;4.55;;
14975;SDS011;7584;60.468;25.126;2022-08-19T13:26:02;11.40;;;4.68;;
14975;SDS011;7584;60.468;25.126;2022-08-19T13:28:28;7.25;;;4.63;;
14975;SDS011;7584;60.468;25.126;2022-08-19T13:31:19;6.78;;;4.47;;
14975;SDS011;7584;60.468;25.126;2022-08-19T13:34:04;8.75;;;4.43;;
14975;SDS011;7584;60.468;25.126;2022-08-19T13:36:31;6.60;;;4.90;;
14975;SDS011;7584;60.468;25.126;2022-08-19T13:38:56;7.68;;;4.60;;
14975;SDS011;7584;60.468;25.126;2022-08-19T13:41:21;7.03;;;4.90;;
14975;SDS011;7584;60.468;25.126;2022-08-19T13:43:47;8.40;;;4.72;;
14975;SDS011;7584;60.468;25.126;2022-08-19T13:46:13;6.20;;;4.78;;
14975;SDS011;7584;60.468;25.126;2022-08-19T13:48:39;7.32;;;5.00;;
14975;SDS011;7584;60.468;25.126;2022-08-19T13:51:06;8.27;;;4.78;;
14975;SDS011;7584;60.468;25.126;2022-08-19T13:53:31;6.15;;;4.75;;
14975;SDS011;7584;60.468;25.126;2022-08-19T13:55:56;7.97;;;4.95;;
14975;SDS011;7584;60.468;25.126;2022-08-19T13:58:22;6.07;;;4.65;;
14975;SDS011;7584;60.468;25.126;2022-08-19T14:00:47;5.03;;;4.53;;
14975;SDS011;7584;60.468;25.126;2022-08-19T14:03:14;10.60;;;5.00;;
14975;SDS011;7584;60.468;25.126;2022-08-19T14:05:40;6.70;;;5.13;;
14975;SDS011;7584;60.468;25.126;2022-08-19T14:08:05;6.55;;;4.72;;
14975;SDS011;7584;60.468;25.126;2022-08-19T14:10:30;8.88;;;4.85;;
14975;SDS011;7584;60.468;25.126;2022-08-19T14:12:57;5.70;;;4.80;;
14975;SDS011;7584;60.468;25.126;2022-08-19T14:15:23;5.72;;;4.68;;
14975;SDS011;7584;60.468;25.126;2022-08-19T14:17:48;7.70;;;5.18;;
14975;SDS011;7584;60.468;25.126;2022-08-19T14:20:14;8.48;;;4.82;;
14975;SDS011;7584;60.468;25.126;2022-08-19T14:22:41;7.60;;;4.85;;
14975;SDS011;7584;60.468;25.126;2022-08-19T14:25:07;7.40;;;4.28;;
14975;SDS011;7584;60.468;25.126;2022-08-19T14:27:33;5.75;;;5.00;;
14975;SDS011;7584;60.468;25.126;2022-08-19T14:29:59;7.78;;;4.82;;
14975;SDS011;7584;60.468;25.126;2022-08-19T14:32:24;12.40;;;4.40;;
14975;SDS011;7584;60.468;25.126;2022-08-19T14:34:52;5.35;;;4.28;;
14975;SDS011;7584;60.468;25.126;2022-08-19T14:37:18;6.95;;;4.82;;
14975;SDS011;7584;60.468;25.126;2022-08-19T14:39:43;6.65;;;4.97;;
14975;SDS011;7584;60.468;25.126;2022-08-19T14:42:10;8.90;;;4.60;;
14975;SDS011;7584;60.468;25.126;2022-08-19T14:44:35;8.60;;;4.88;;
14975;SDS011;7584;60.468;25.126;2022-08-19T14:47:00;8.95;;;4.82;;